Time;durP1;ratioP1;P1;durP2;ratioP2;P2;SDS_P1;SDS_P2;PMS_P1;PMS_P2;Temp;Humidity;BMP_temperature;BMP_pressure;BME280_temperature;BME280_humidity;BME280_pressure;Samples;Min_cycle;Max_cycle;Signal;HPM_P1;HPM_P2
2022/05/03 06:12:10;;;;;;;7.50;3.53;;;;;;;;;;5012409;24;20058;-62
2022/05/03 06:14:36;;;;;;;6.82;3.33;;;;;;;;;;4825400;29;20066;-62
2022/05/03 06:17:02;;;;;;;7.82;3.22;;;;;;;;;;4825490;29;20030;-61
2022/05/03 06:19:28;;;;;;;8.75;3.50;;;;;;;;;;4825191;29;20035;-62
2022/05/03 06:21:54;;;;;;;5.70;3.33;;;;;;;;;;4825292;29;20052;-61
2022/05/03 06:24:21;;;;;;;9.27;3.70;;;;;;;;;;4825200;29;20038;-62
2022/05/03 06:26:47;;;;;;;7.55;3.70;;;;;;;;;;4825570;29;20114;-61
2022/05/03 06:29:14;;;;;;;8.77;3.58;;;;;;;;;;4825039;29;20027;-63
2022/05/03 06:31:42;;;;;;;5.60;3.05;;;;;;;;;;4825036;29;20390;-63
2022/05/03 06:34:08;;;;;;;10.10;3.85;;;;;;;;;;4818368;29;20031;-64
2022/05/03 06:36:35;;;;;;;5.85;2.70;;;;;;;;;;4820302;29;20133;-64
2022/05/03 06:39:02;;;;;;;7.72;2.97;;;;;;;;;;4819321;29;20022;-62
2022/05/03 06:41:28;;;;;;;7.65;2.95;;;;;;;;;;4813571;29;20039;-61
2022/05/03 06:43:56;;;;;;;9.23;3.17;;;;;;;;;;4822711;29;20597;-62
2022/05/03 06:46:22;;;;;;;6.10;3.10;;;;;;;;;;4822416;29;20491;-61
2022/05/03 06:48:48;;;;;;;6.03;2.75;;;;;;;;;;4824208;29;20019;-65
2022/05/03 06:51:14;;;;;;;7.55;3.00;;;;;;;;;;4824302;29;20034;-61
2022/05/03 06:53:41;;;;;;;8.63;3.10;;;;;;;;;;4824178;29;20062;-62
2022/05/03 06:56:07;;;;;;;7.78;3.03;;;;;;;;;;4823696;29;20052;-62
2022/05/03 06:58:33;;;;;;;6.65;2.92;;;;;;;;;;4824217;29;20014;-61
2022/05/03 07:01:20;;;;;;;6.60;3.35;;;;;;;;;;4823371;29;20141;-63
2022/05/03 07:03:46;;;;;;;9.13;3.00;;;;;;;;;;4822611;29;20159;-62
2022/05/03 07:06:12;;;;;;;6.30;3.13;;;;;;;;;;4824386;29;20100;-62
2022/05/03 07:08:39;;;;;;;5.78;3.15;;;;;;;;;;4824459;29;20424;-62
2022/05/03 07:11:05;;;;;;;7.10;3.10;;;;;;;;;;4824307;29;20033;-66
2022/05/03 07:13:31;;;;;;;5.88;3.17;;;;;;;;;;4823760;29;20125;-69
2022/05/03 07:15:59;;;;;;;6.35;3.40;;;;;;;;;;4824067;29;20507;-67
2022/05/03 07:23:55;;;;;;;6.30;3.25;;;;;;;;;;4824252;29;20038;-64
2022/05/03 07:26:21;;;;;;;7.28;3.33;;;;;;;;;;4824232;29;20066;-67
2022/05/03 07:28:48;;;;;;;5.60;3.20;;;;;;;;;;4824316;29;20027;-65
2022/05/03 07:31:15;;;;;;;6.47;3.28;;;;;;;;;;4824227;29;20056;-64
2022/05/03 07:33:41;;;;;;;7.63;3.58;;;;;;;;;;4824092;29;20030;-64
2022/05/03 07:36:08;;;;;;;8.40;3.50;;;;;;;;;;4823500;29;20098;-61
2022/05/03 07:38:34;;;;;;;7.68;3.40;;;;;;;;;;4823193;29;20109;-66
2022/05/03 07:41:00;;;;;;;7.30;3.40;;;;;;;;;;4817788;29;20038;-64
2022/05/03 07:43:26;;;;;;;7.50;3.53;;;;;;;;;;4808054;29;20035;-65
2022/05/03 07:45:54;;;;;;;6.68;3.40;;;;;;;;;;4821382;29;20083;-66
2022/05/03 07:48:20;;;;;;;6.50;3.40;;;;;;;;;;4822710;29;20071;-65
2022/05/03 07:50:46;;;;;;;7.13;3.13;;;;;;;;;;4822312;29;20034;-66
2022/05/03 07:53:12;;;;;;;10.60;3.38;;;;;;;;;;4821718;29;20022;-65
2022/05/03 07:55:38;;;;;;;6.57;3.70;;;;;;;;;;4823363;29;20090;-67
2022/05/03 07:58:05;;;;;;;7.45;3.60;;;;;;;;;;4822126;29;20026;-63
2022/05/03 08:00:31;;;;;;;5.57;2.90;;;;;;;;;;4822555;29;20034;-63
2022/05/03 08:02:57;;;;;;;6.45;3.55;;;;;;;;;;4820333;29;20093;-64
2022/05/03 08:05:23;;;;;;;8.88;3.03;;;;;;;;;;4822154;29;20038;-66
2022/05/03 08:07:50;;;;;;;8.20;3.35;;;;;;;;;;4823436;29;20506;-64
2022/05/03 08:10:16;;;;;;;7.10;3.45;;;;;;;;;;4823517;29;20038;-64
2022/05/03 08:12:43;;;;;;;4.50;3.00;;;;;;;;;;4828524;29;20078;-65
2022/05/03 08:15:09;;;;;;;6.57;3.28;;;;;;;;;;4831082;29;20086;-64
2022/05/03 08:17:36;;;;;;;5.88;3.17;;;;;;;;;;4837038;29;20065;-63
2022/05/03 08:20:02;;;;;;;7.65;2.80;;;;;;;;;;4832377;29;20031;-61
2022/05/03 08:22:28;;;;;;;8.35;3.20;;;;;;;;;;4831215;29;20142;-61
2022/05/03 08:24:54;;;;;;;4.00;2.58;;;;;;;;;;4833621;29;20030;-61
2022/05/03 08:27:21;;;;;;;6.15;3.10;;;;;;;;;;4831688;29;20034;-62
2022/05/03 08:29:47;;;;;;;7.35;2.92;;;;;;;;;;4832826;29;20034;-61
2022/05/03 08:32:13;;;;;;;6.45;2.70;;;;;;;;;;4831551;29;20058;-60
2022/05/03 08:34:39;;;;;;;7.03;2.60;;;;;;;;;;4827352;29;20047;-61
2022/05/03 08:42:34;;;;;;;13.98;3.50;;;;;;;;;;4832974;29;20139;-67
2022/05/03 08:45:01;;;;;;;7.18;3.30;;;;;;;;;;4821489;29;20394;-62
2022/05/03 08:47:30;;;;;;;7.65;2.97;;;;;;;;;;4822985;29;20082;-62
2022/05/03 08:50:07;;;;;;;10.60;3.40;;;;;;;;;;4822964;29;20065;-61
2022/05/03 08:52:34;;;;;;;5.47;2.80;;;;;;;;;;4822776;29;20046;-61
2022/05/03 08:55:03;;;;;;;6.57;3.33;;;;;;;;;;4822309;29;20029;-61
2022/05/03 08:57:30;;;;;;;8.15;3.38;;;;;;;;;;4822604;29;20551;-61
2022/05/03 08:59:57;;;;;;;9.23;3.17;;;;;;;;;;4822746;29;20115;-61
2022/05/03 09:02:23;;;;;;;7.45;3.30;;;;;;;;;;4822711;29;20410;-62
2022/05/03 09:04:50;;;;;;;7.30;3.20;;;;;;;;;;4822692;29;20061;-63
2022/05/03 09:07:20;;;;;;;7.45;3.28;;;;;;;;;;4822956;29;20079;-60
2022/05/03 09:09:46;;;;;;;6.60;3.45;;;;;;;;;;4822851;29;20038;-60
2022/05/03 09:12:26;;;;;;;5.55;2.90;;;;;;;;;;4822270;29;20054;-60
2022/05/03 09:14:53;;;;;;;7.53;3.22;;;;;;;;;;4822430;29;20038;-61
2022/05/03 09:17:39;;;;;;;8.20;3.40;;;;;;;;;;4822951;29;20034;-62
2022/05/03 09:25:54;;;;;;;6.15;3.22;;;;;;;;;;4822711;29;20078;-60
2022/05/03 09:28:22;;;;;;;7.15;3.15;;;;;;;;;;4822208;29;20038;-60
2022/05/03 09:30:50;;;;;;;6.38;3.70;;;;;;;;;;4822463;29;20053;-62
2022/05/03 09:33:20;;;;;;;8.63;3.67;;;;;;;;;;4822294;29;20031;-60
2022/05/03 09:35:46;;;;;;;6.20;3.30;;;;;;;;;;4822340;29;20094;-62
2022/05/03 09:38:12;;;;;;;6.43;3.33;;;;;;;;;;4822423;29;20042;-60
2022/05/03 09:40:42;;;;;;;5.28;3.00;;;;;;;;;;4822423;29;20499;-62
2022/05/03 09:43:11;;;;;;;9.75;3.70;;;;;;;;;;4821836;29;20042;-62
2022/05/03 09:45:38;;;;;;;6.80;3.30;;;;;;;;;;4822369;29;20047;-61
2022/05/03 09:48:04;;;;;;;6.43;3.58;;;;;;;;;;4822210;29;20052;-61
2022/05/03 09:50:31;;;;;;;8.52;4.00;;;;;;;;;;4822305;29;20117;-61
2022/05/03 09:52:58;;;;;;;5.70;3.67;;;;;;;;;;4822279;29;20082;-61
2022/05/03 09:55:29;;;;;;;7.70;3.38;;;;;;;;;;4822517;29;20042;-61
2022/05/03 09:57:59;;;;;;;8.48;3.13;;;;;;;;;;4821806;29;20030;-61
2022/05/03 10:00:25;;;;;;;5.50;3.00;;;;;;;;;;4822165;29;20037;-60
2022/05/03 10:02:53;;;;;;;9.32;3.30;;;;;;;;;;4821960;29;20034;-60
2022/05/03 10:05:21;;;;;;;4.65;2.58;;;;;;;;;;4822115;29;20483;-62
2022/05/03 10:07:49;;;;;;;4.47;3.15;;;;;;;;;;4822305;29;20454;-62
2022/05/03 10:10:16;;;;;;;7.38;3.00;;;;;;;;;;4821934;29;20034;-60
2022/05/03 10:12:42;;;;;;;9.30;3.22;;;;;;;;;;4821441;29;20054;-60
2022/05/03 10:15:09;;;;;;;7.40;2.80;;;;;;;;;;4821684;29;20048;-60
2022/05/03 10:20:38;;;;;;;5.10;2.80;;;;;;;;;;4821559;29;20060;-60
2022/05/03 10:23:24;;;;;;;8.73;3.33;;;;;;;;;;4821638;29;20026;-60
2022/05/03 10:25:54;;;;;;;4.75;2.50;;;;;;;;;;4821446;29;20410;-61
2022/05/03 10:28:21;;;;;;;6.18;2.70;;;;;;;;;;4821759;29;20090;-60
2022/05/03 10:31:05;;;;;;;4.93;2.50;;;;;;;;;;4821470;29;20111;-61
2022/05/03 10:33:31;;;;;;;7.53;3.08;;;;;;;;;;4821167;29;20483;-60
2022/05/03 10:35:58;;;;;;;5.72;2.47;;;;;;;;;;4821658;29;20046;-60
2022/05/03 10:38:38;;;;;;;10.05;3.05;;;;;;;;;;4824050;29;20034;-60
2022/05/03 10:41:11;;;;;;;5.82;2.67;;;;;;;;;;4824816;29;20050;-60
2022/05/03 10:43:38;;;;;;;5.32;2.70;;;;;;;;;;4824564;29;20034;-60
2022/05/03 10:46:13;;;;;;;5.43;2.70;;;;;;;;;;4824796;29;20045;-61
2022/05/03 10:48:43;;;;;;;6.07;2.70;;;;;;;;;;4824636;29;20023;-60
2022/05/03 10:51:10;;;;;;;5.57;2.70;;;;;;;;;;4824404;29;20038;-61
2022/05/03 10:53:37;;;;;;;5.30;2.30;;;;;;;;;;4824699;29;20058;-60
2022/05/03 10:56:07;;;;;;;5.53;2.58;;;;;;;;;;4824746;29;20470;-61
2022/05/03 10:58:40;;;;;;;6.72;2.80;;;;;;;;;;4824470;29;20034;-61
2022/05/03 11:01:23;;;;;;;4.43;2.58;;;;;;;;;;4824583;29;20064;-61
2022/05/03 11:03:57;;;;;;;6.75;2.90;;;;;;;;;;4824708;29;20114;-61
2022/05/03 11:06:26;;;;;;;6.18;2.60;;;;;;;;;;4824640;29;20062;-61
2022/05/03 11:11:42;;;;;;;5.50;2.90;;;;;;;;;;4823845;29;20411;-60
2022/05/03 11:14:08;;;;;;;5.05;2.20;;;;;;;;;;4824027;29;20542;-61
2022/05/03 11:16:37;;;;;;;3.92;2.20;;;;;;;;;;4823983;29;20125;-61
2022/05/03 11:19:16;;;;;;;3.38;2.50;;;;;;;;;;4823781;29;20415;-62
2022/05/03 11:21:45;;;;;;;5.18;2.50;;;;;;;;;;4824009;29;20026;-60
2022/05/03 11:24:18;;;;;;;3.97;2.10;;;;;;;;;;4824199;29;20035;-62
2022/05/03 11:26:44;;;;;;;3.25;2.22;;;;;;;;;;4823997;29;20035;-62
2022/05/03 11:29:13;;;;;;;5.07;2.25;;;;;;;;;;4823780;29;20035;-60
2022/05/03 11:31:39;;;;;;;4.10;2.50;;;;;;;;;;4823904;29;20026;-63
2022/05/03 11:34:06;;;;;;;5.82;2.20;;;;;;;;;;4823788;29;20369;-63
2022/05/03 11:36:33;;;;;;;5.25;2.20;;;;;;;;;;4823735;29;20038;-62
2022/05/03 11:39:03;;;;;;;4.35;2.47;;;;;;;;;;4824060;29;20041;-63
2022/05/03 11:41:29;;;;;;;5.65;2.30;;;;;;;;;;4823806;29;20049;-60
2022/05/03 11:43:56;;;;;;;6.30;2.17;;;;;;;;;;4823529;29;20583;-61
2022/05/03 11:46:23;;;;;;;4.80;2.40;;;;;;;;;;4823919;29;20030;-60
2022/05/03 11:49:02;;;;;;;4.53;2.30;;;;;;;;;;4823547;29;20138;-62
2022/05/03 11:57:05;;;;;;;3.75;2.00;;;;;;;;;;4823432;29;20308;-61
2022/05/03 11:59:32;;;;;;;4.40;2.50;;;;;;;;;;4822932;29;20101;-62
2022/05/03 12:02:13;;;;;;;4.47;2.40;;;;;;;;;;4823380;29;20034;-62
2022/05/03 12:04:39;;;;;;;5.20;2.33;;;;;;;;;;4823730;29;20036;-62
2022/05/03 12:07:05;;;;;;;3.85;2.50;;;;;;;;;;4823501;29;20044;-61
2022/05/03 12:09:35;;;;;;;9.40;2.47;;;;;;;;;;4823489;29;20090;-61
2022/05/03 12:14:46;;;;;;;4.10;2.42;;;;;;;;;;4822660;29;20052;-60
2022/05/03 12:17:12;;;;;;;5.25;2.28;;;;;;;;;;4823133;29;20130;-61
2022/05/03 12:19:38;;;;;;;3.25;2.08;;;;;;;;;;4823403;29;20030;-61
2022/05/03 12:22:09;;;;;;;4.47;2.40;;;;;;;;;;4823303;29;20034;-62
2022/05/03 12:24:35;;;;;;;3.33;1.88;;;;;;;;;;4823293;29;20030;-62
2022/05/03 12:27:14;;;;;;;4.43;2.10;;;;;;;;;;4822906;29;20038;-62
2022/05/03 12:29:44;;;;;;;3.95;1.73;;;;;;;;;;4823112;29;20386;-62
2022/05/03 12:32:18;;;;;;;4.97;1.98;;;;;;;;;;4822989;29;20090;-62
2022/05/03 12:35:03;;;;;;;5.05;2.20;;;;;;;;;;4823329;29;20501;-61
2022/05/03 12:37:29;;;;;;;3.70;1.83;;;;;;;;;;4823100;29;20034;-61
2022/05/03 12:40:01;;;;;;;5.82;2.13;;;;;;;;;;4823237;29;20042;-61
2022/05/03 12:42:27;;;;;;;5.20;2.10;;;;;;;;;;4822909;29;20543;-62
2022/05/03 12:44:55;;;;;;;3.70;2.10;;;;;;;;;;4822642;29;20030;-61
2022/05/03 12:47:22;;;;;;;4.43;2.10;;;;;;;;;;4823182;29;20037;-62
2022/05/03 12:49:48;;;;;;;3.55;1.92;;;;;;;;;;4823085;29;20070;-61
2022/05/03 12:52:15;;;;;;;5.15;1.77;;;;;;;;;;4822867;29;20057;-62
2022/05/03 12:54:42;;;;;;;5.05;1.95;;;;;;;;;;4822799;29;20430;-62
2022/05/03 12:59:54;;;;;;;3.65;2.05;;;;;;;;;;4822490;29;20158;-61
2022/05/03 13:02:21;;;;;;;3.20;2.08;;;;;;;;;;4822893;29;20103;-61
2022/05/03 13:04:47;;;;;;;4.53;2.08;;;;;;;;;;4823043;29;20087;-62
2022/05/03 13:07:13;;;;;;;4.70;2.20;;;;;;;;;;4822573;29;20035;-62
2022/05/03 13:09:39;;;;;;;6.25;2.42;;;;;;;;;;4821982;29;20100;-62
2022/05/03 13:12:06;;;;;;;6.38;1.95;;;;;;;;;;4821950;29;20123;-62
2022/05/03 13:14:32;;;;;;;4.18;1.98;;;;;;;;;;4822062;29;20046;-62
2022/05/03 13:16:59;;;;;;;5.72;2.38;;;;;;;;;;4822739;29;20452;-61
2022/05/03 13:19:26;;;;;;;4.38;2.40;;;;;;;;;;4822756;29;20040;-61
2022/05/03 13:21:54;;;;;;;4.28;2.10;;;;;;;;;;4822338;29;20414;-61
2022/05/03 13:24:21;;;;;;;4.88;2.28;;;;;;;;;;4822143;29;20117;-61
2022/05/03 13:26:47;;;;;;;4.57;2.30;;;;;;;;;;4822408;29;20038;-62
2022/05/03 13:29:15;;;;;;;4.18;2.15;;;;;;;;;;4822707;29;20449;-61
2022/05/03 13:31:43;;;;;;;5.10;2.28;;;;;;;;;;4821887;29;20022;-62
2022/05/03 13:34:09;;;;;;;5.43;2.58;;;;;;;;;;4821625;29;20062;-62
2022/05/03 13:42:05;;;;;;;5.75;2.25;;;;;;;;;;4821185;29;20122;-62
2022/05/03 13:44:32;;;;;;;3.97;2.45;;;;;;;;;;4821491;29;20036;-62
2022/05/03 13:46:58;;;;;;;4.93;2.47;;;;;;;;;;4821974;29;20041;-60
2022/05/03 13:49:24;;;;;;;3.92;2.60;;;;;;;;;;4821957;29;20026;-61
2022/05/03 13:51:51;;;;;;;4.10;2.28;;;;;;;;;;4821733;29;20113;-60
2022/05/03 13:54:17;;;;;;;4.78;2.80;;;;;;;;;;4821915;29;20035;-61
2022/05/03 13:56:43;;;;;;;3.95;2.45;;;;;;;;;;4821383;29;20113;-61
2022/05/03 13:59:09;;;;;;;5.95;3.00;;;;;;;;;;4821684;29;20092;-62
2022/05/03 14:01:35;;;;;;;6.40;2.80;;;;;;;;;;4821575;29;20045;-66
2022/05/03 14:04:02;;;;;;;4.32;2.85;;;;;;;;;;4821842;29;20054;-61
2022/05/03 14:06:28;;;;;;;5.95;2.60;;;;;;;;;;4821647;29;20023;-60
2022/05/03 14:08:55;;;;;;;6.65;3.90;;;;;;;;;;4821863;29;20039;-62
2022/05/03 14:11:21;;;;;;;6.28;3.10;;;;;;;;;;4821825;29;20038;-61
2022/05/03 14:13:47;;;;;;;8.02;4.07;;;;;;;;;;4824726;29;20517;-62
2022/05/03 14:16:16;;;;;;;8.40;4.90;;;;;;;;;;4824967;29;20053;-61
2022/05/03 14:18:43;;;;;;;8.55;4.00;;;;;;;;;;4824968;29;20034;-61
2022/05/03 14:21:09;;;;;;;6.15;3.40;;;;;;;;;;4825373;29;20030;-61
2022/05/03 14:23:35;;;;;;;5.22;3.78;;;;;;;;;;4825013;29;20518;-61
2022/05/03 14:26:01;;;;;;;6.07;3.70;;;;;;;;;;4825346;29;20041;-60
2022/05/03 14:28:28;;;;;;;7.75;3.53;;;;;;;;;;4824653;29;20476;-61
2022/05/03 14:30:55;;;;;;;5.70;2.85;;;;;;;;;;4824320;29;20037;-61
2022/05/03 14:33:21;;;;;;;6.35;3.20;;;;;;;;;;4827559;29;20034;-62
2022/05/03 14:35:47;;;;;;;9.25;3.92;;;;;;;;;;4843343;29;20479;-61
2022/05/03 14:38:13;;;;;;;5.65;2.80;;;;;;;;;;4843234;29;20034;-60
2022/05/03 14:40:39;;;;;;;6.50;2.70;;;;;;;;;;4843264;29;20038;-60
2022/05/03 14:43:06;;;;;;;7.18;2.80;;;;;;;;;;4842886;29;20120;-63
2022/05/03 14:45:34;;;;;;;7.55;2.70;;;;;;;;;;4842893;29;20423;-59
2022/05/03 14:48:00;;;;;;;4.40;2.70;;;;;;;;;;4838702;29;20026;-62
2022/05/03 14:50:28;;;;;;;4.45;2.55;;;;;;;;;;4821557;29;20042;-59
2022/05/03 14:52:54;;;;;;;4.10;2.67;;;;;;;;;;4832983;29;20034;-59
2022/05/03 14:55:20;;;;;;;8.65;2.75;;;;;;;;;;4837802;29;20073;-61
2022/05/03 15:03:27;;;;;;;7.75;2.90;;;;;;;;;;4748643;30;20057;-62
2022/05/03 15:05:54;;;;;;;4.80;2.50;;;;;;;;;;4749943;30;20561;-59
2022/05/03 15:08:20;;;;;;;6.85;3.00;;;;;;;;;;4750197;30;20565;-68
2022/05/03 15:10:46;;;;;;;6.15;2.83;;;;;;;;;;4749809;30;20113;-63
2022/05/03 15:13:12;;;;;;;5.60;3.08;;;;;;;;;;4749326;30;20131;-60
2022/05/03 15:15:41;;;;;;;7.13;2.80;;;;;;;;;;4750156;30;20106;-61
2022/05/03 15:18:07;;;;;;;6.65;2.58;;;;;;;;;;4750530;30;20108;-64
2022/05/03 15:20:33;;;;;;;5.30;2.45;;;;;;;;;;4750110;30;20036;-61
2022/05/03 15:25:45;;;;;;;6.20;2.72;;;;;;;;;;4750319;30;20108;-67
2022/05/03 15:28:12;;;;;;;6.38;2.60;;;;;;;;;;4750208;30;20032;-69
2022/05/03 15:30:38;;;;;;;6.97;2.70;;;;;;;;;;4749138;30;20063;-68
2022/05/03 15:33:05;;;;;;;5.13;2.60;;;;;;;;;;4748732;30;20097;-61
2022/05/03 15:35:31;;;;;;;3.72;2.40;;;;;;;;;;4748560;30;20127;-64
2022/05/03 15:38:00;;;;;;;3.63;2.63;;;;;;;;;;4748748;30;20051;-66
2022/05/03 15:40:27;;;;;;;10.95;3.42;;;;;;;;;;4811561;29;20087;-69
2022/05/03 15:42:53;;;;;;;5.55;2.80;;;;;;;;;;4829832;29;20103;-65
2022/05/03 15:45:19;;;;;;;4.43;2.72;;;;;;;;;;4831774;29;20543;-62
2022/05/03 15:47:47;;;;;;;4.80;3.17;;;;;;;;;;4831559;29;20036;-59
2022/05/03 15:50:14;;;;;;;9.68;3.00;;;;;;;;;;4833553;29;20050;-68
2022/05/03 15:52:42;;;;;;;6.18;2.60;;;;;;;;;;4832574;29;20118;-64
2022/05/03 15:55:08;;;;;;;7.45;2.78;;;;;;;;;;4833120;29;20048;-65
2022/05/03 15:57:34;;;;;;;7.28;2.60;;;;;;;;;;4832108;29;20034;-64
2022/05/03 16:00:01;;;;;;;6.30;2.78;;;;;;;;;;4831620;29;20125;-63
2022/05/03 16:02:27;;;;;;;5.00;2.55;;;;;;;;;;4826372;29;20083;-59
2022/05/03 16:04:53;;;;;;;4.88;2.33;;;;;;;;;;4835813;29;20030;-63
2022/05/03 16:07:20;;;;;;;3.67;2.35;;;;;;;;;;4833031;29;20060;-68
2022/05/03 16:09:46;;;;;;;4.32;2.83;;;;;;;;;;4832062;29;20083;-67
2022/05/03 16:12:12;;;;;;;8.07;2.78;;;;;;;;;;4832476;29;20065;-67
2022/05/03 16:14:38;;;;;;;5.82;2.60;;;;;;;;;;4830136;29;20043;-66
2022/05/03 16:17:07;;;;;;;4.22;2.70;;;;;;;;;;4823506;29;20038;-67
2022/05/03 16:19:34;;;;;;;5.68;2.72;;;;;;;;;;4826505;29;20113;-64
2022/05/03 16:22:07;;;;;;;4.80;3.00;;;;;;;;;;4830513;29;20162;-66
2022/05/03 16:24:33;;;;;;;7.40;2.85;;;;;;;;;;4827620;29;20074;-67
2022/05/03 16:26:59;;;;;;;4.85;2.80;;;;;;;;;;4824687;29;20026;-59
2022/05/03 16:29:26;;;;;;;4.38;2.78;;;;;;;;;;4824636;29;20031;-66
2022/05/03 16:31:52;;;;;;;6.70;3.00;;;;;;;;;;4821560;29;20471;-66
2022/05/03 16:34:19;;;;;;;6.72;2.88;;;;;;;;;;4832375;29;20487;-63
2022/05/03 16:42:19;;;;;;;5.43;3.40;;;;;;;;;;4822746;29;20072;-61
2022/05/03 16:44:46;;;;;;;6.35;2.95;;;;;;;;;;4822547;29;20038;-60
2022/05/03 16:47:13;;;;;;;5.60;3.40;;;;;;;;;;4822645;29;20106;-63
2022/05/03 16:49:40;;;;;;;9.02;3.85;;;;;;;;;;4828838;29;20033;-65
2022/05/03 16:52:07;;;;;;;5.38;3.25;;;;;;;;;;4825648;29;20092;-66
2022/05/03 16:54:34;;;;;;;6.90;3.33;;;;;;;;;;4833072;29;20048;-66
2022/05/03 16:57:00;;;;;;;9.48;3.42;;;;;;;;;;4840974;29;20037;-63
2022/05/03 16:59:26;;;;;;;10.13;3.38;;;;;;;;;;4840948;29;20501;-67
2022/05/03 17:01:52;;;;;;;13.27;6.50;;;;;;;;;;4830718;29;20048;-66
2022/05/03 17:04:19;;;;;;;9.82;4.10;;;;;;;;;;4822888;29;20510;-64
2022/05/03 17:06:45;;;;;;;5.65;3.47;;;;;;;;;;4822617;29;20393;-65
2022/05/03 17:09:11;;;;;;;7.75;3.50;;;;;;;;;;4822676;29;20643;-59
2022/05/03 17:11:38;;;;;;;11.57;5.13;;;;;;;;;;4822346;29;20093;-65
2022/05/03 17:14:04;;;;;;;9.93;5.03;;;;;;;;;;4822449;29;20027;-66
2022/05/03 17:16:31;;;;;;;9.95;4.10;;;;;;;;;;4822274;29;20650;-60
2022/05/03 17:18:57;;;;;;;7.82;4.00;;;;;;;;;;4822658;29;20031;-66
2022/05/03 17:21:23;;;;;;;8.15;3.90;;;;;;;;;;4834319;29;20046;-58
2022/05/03 17:23:49;;;;;;;11.27;5.85;;;;;;;;;;4838521;29;20376;-62
2022/05/03 17:26:15;;;;;;;13.02;4.45;;;;;;;;;;4822557;29;20479;-59
2022/05/03 17:28:41;;;;;;;9.00;4.22;;;;;;;;;;4824775;29;20111;-66
2022/05/03 17:31:08;;;;;;;8.98;4.10;;;;;;;;;;4822156;29;20058;-67
2022/05/03 17:33:35;;;;;;;8.48;3.58;;;;;;;;;;4823983;29;20117;-67
2022/05/03 17:36:01;;;;;;;7.88;4.00;;;;;;;;;;4840314;29;20124;-67
2022/05/03 17:38:27;;;;;;;9.38;4.13;;;;;;;;;;4827594;29;20037;-60
2022/05/03 17:40:54;;;;;;;7.78;4.57;;;;;;;;;;4821767;29;20038;-60
2022/05/03 17:43:22;;;;;;;9.70;4.13;;;;;;;;;;4822016;29;20141;-67
2022/05/03 17:45:48;;;;;;;7.40;4.20;;;;;;;;;;4821736;29;20082;-60
2022/05/03 17:48:14;;;;;;;9.15;4.43;;;;;;;;;;4822026;29;20022;-69
2022/05/03 17:50:40;;;;;;;9.05;4.70;;;;;;;;;;4822155;29;20121;-66
2022/05/03 17:55:52;;;;;;;10.23;4.90;;;;;;;;;;4821767;29;20066;-59
2022/05/03 17:58:18;;;;;;;12.57;4.93;;;;;;;;;;4820218;29;20085;-68
2022/05/03 18:00:44;;;;;;;8.93;4.90;;;;;;;;;;4821726;29;20131;-69
2022/05/03 18:03:10;;;;;;;11.95;4.95;;;;;;;;;;4821569;29;20399;-64
2022/05/03 18:05:38;;;;;;;12.10;5.30;;;;;;;;;;4821809;29;20034;-63
2022/05/03 18:08:04;;;;;;;13.15;5.90;;;;;;;;;;4821863;29;20026;-68
2022/05/03 18:10:30;;;;;;;11.30;4.68;;;;;;;;;;4821942;29;20118;-65
2022/05/03 18:12:56;;;;;;;16.27;6.40;;;;;;;;;;4821718;29;20054;-66
2022/05/03 18:15:23;;;;;;;14.13;6.60;;;;;;;;;;4832685;29;20046;-69
2022/05/03 18:17:49;;;;;;;18.13;8.52;;;;;;;;;;4823740;29;20118;-70
2022/05/03 18:20:15;;;;;;;19.60;10.35;;;;;;;;;;4827988;29;20138;-68
2022/05/03 18:22:41;;;;;;;18.75;9.38;;;;;;;;;;4821759;29;20038;-58
2022/05/03 18:25:07;;;;;;;26.42;13.40;;;;;;;;;;4822022;29;20018;-58
2022/05/03 18:27:33;;;;;;;18.52;8.85;;;;;;;;;;4821799;29;20035;-68
2022/05/03 18:29:59;;;;;;;15.50;7.55;;;;;;;;;;4821817;29;20031;-60
2022/05/03 18:32:27;;;;;;;15.40;7.38;;;;;;;;;;4821720;29;20110;-59
2022/05/03 18:34:53;;;;;;;12.25;6.72;;;;;;;;;;4821703;29;20045;-69
2022/05/03 18:37:20;;;;;;;13.65;6.82;;;;;;;;;;4821865;29;20033;-60
2022/05/03 18:39:46;;;;;;;16.65;7.35;;;;;;;;;;4821835;29;20033;-66
2022/05/03 18:42:13;;;;;;;14.18;6.90;;;;;;;;;;4821627;29;20462;-68
2022/05/03 18:44:39;;;;;;;12.75;6.10;;;;;;;;;;4821466;29;20122;-65
2022/05/03 18:47:05;;;;;;;12.32;5.55;;;;;;;;;;4821686;29;20026;-68
2022/05/03 18:49:31;;;;;;;13.07;5.35;;;;;;;;;;4822085;29;20545;-63
2022/05/03 18:51:57;;;;;;;13.15;5.63;;;;;;;;;;4839211;29;20053;-61
2022/05/03 18:57:08;;;;;;;7.35;4.45;;;;;;;;;;4831386;29;20072;-59
2022/05/03 18:59:34;;;;;;;9.38;4.63;;;;;;;;;;4839193;29;20110;-64
2022/05/03 19:02:02;;;;;;;10.73;4.40;;;;;;;;;;4829732;29;20034;-66
2022/05/03 19:04:29;;;;;;;9.77;4.13;;;;;;;;;;4824171;29;20037;-69
2022/05/03 19:06:55;;;;;;;10.23;4.57;;;;;;;;;;4830524;29;20436;-68
2022/05/03 19:09:22;;;;;;;11.63;4.97;;;;;;;;;;4842334;29;20026;-57
2022/05/03 19:11:49;;;;;;;13.02;4.97;;;;;;;;;;4841835;29;20141;-67
2022/05/03 19:14:15;;;;;;;10.50;4.65;;;;;;;;;;4835960;29;20030;-63
2022/05/03 19:16:41;;;;;;;13.38;5.60;;;;;;;;;;4840703;29;20565;-68
2022/05/03 19:19:08;;;;;;;16.52;6.72;;;;;;;;;;4836043;29;20486;-67
2022/05/03 19:21:35;;;;;;;14.10;6.65;;;;;;;;;;4842144;29;20532;-61
2022/05/03 19:32:15;;;;;;;13.40;7.95;;;;;;;;;;4842221;29;20072;-66
2022/05/03 19:34:42;;;;;;;9.98;5.18;;;;;;;;;;4842319;29;20041;-59
2022/05/03 19:37:10;;;;;;;11.27;5.47;;;;;;;;;;4833531;29;20062;-57
2022/05/03 19:39:37;;;;;;;9.02;4.65;;;;;;;;;;4832172;29;20102;-57
2022/05/03 19:42:03;;;;;;;8.73;5.18;;;;;;;;;;4835334;29;20050;-68
2022/05/03 19:44:30;;;;;;;13.15;6.68;;;;;;;;;;4842236;29;20034;-58
2022/05/03 19:46:56;;;;;;;12.90;7.05;;;;;;;;;;4841543;29;20038;-63
2022/05/03 19:49:22;;;;;;;15.70;8.13;;;;;;;;;;4841923;29;20518;-58
2022/05/03 19:51:48;;;;;;;8.45;5.00;;;;;;;;;;4825961;29;20034;-58
2022/05/03 19:54:14;;;;;;;7.57;4.70;;;;;;;;;;4840771;29;20052;-64
2022/05/03 19:56:40;;;;;;;10.40;6.03;;;;;;;;;;4841936;29;20041;-58
2022/05/03 19:59:07;;;;;;;8.32;4.72;;;;;;;;;;4841647;29;20125;-58
2022/05/03 20:01:33;;;;;;;8.05;4.55;;;;;;;;;;4830285;29;20121;-68
2022/05/03 20:03:59;;;;;;;8.55;4.70;;;;;;;;;;4832643;29;20034;-67
2022/05/03 20:06:25;;;;;;;13.13;5.47;;;;;;;;;;4831034;29;20425;-68
2022/05/03 20:08:51;;;;;;;14.05;5.93;;;;;;;;;;4832138;29;20022;-61
2022/05/03 20:11:17;;;;;;;11.02;7.03;;;;;;;;;;4831784;29;20107;-67
2022/05/03 20:13:43;;;;;;;15.32;7.43;;;;;;;;;;4830755;29;20031;-62
2022/05/03 20:16:09;;;;;;;19.95;7.65;;;;;;;;;;4831661;29;20042;-57
2022/05/03 20:18:36;;;;;;;12.93;7.47;;;;;;;;;;4831608;29;20499;-63
2022/05/03 20:21:02;;;;;;;15.23;7.57;;;;;;;;;;4831136;29;20070;-68
2022/05/03 20:23:29;;;;;;;14.18;6.60;;;;;;;;;;4832803;29;20501;-68
2022/05/03 20:25:55;;;;;;;13.93;7.40;;;;;;;;;;4831456;29;20604;-69
2022/05/03 20:28:22;;;;;;;17.48;7.15;;;;;;;;;;4830387;29;20037;-58
2022/05/03 20:30:48;;;;;;;14.18;6.55;;;;;;;;;;4832655;29;20103;-67
2022/05/03 20:33:14;;;;;;;13.18;7.40;;;;;;;;;;4831731;29;20026;-69
2022/05/03 20:35:41;;;;;;;18.42;7.60;;;;;;;;;;4831006;29;20483;-67
2022/05/03 20:38:07;;;;;;;16.95;8.45;;;;;;;;;;4832247;29;20538;-69
2022/05/03 20:40:34;;;;;;;15.20;7.90;;;;;;;;;;4831445;29;20023;-68
2022/05/03 20:43:01;;;;;;;17.67;8.90;;;;;;;;;;4831138;29;20038;-64
2022/05/03 20:45:27;;;;;;;16.42;9.25;;;;;;;;;;4825017;29;20035;-61
2022/05/03 20:50:38;;;;;;;15.00;8.13;;;;;;;;;;4832111;29;20521;-67
2022/05/03 20:53:04;;;;;;;14.05;7.90;;;;;;;;;;4831790;29;20080;-61
2022/05/03 20:55:30;;;;;;;19.45;7.95;;;;;;;;;;4829286;29;20067;-65
2022/05/03 20:57:56;;;;;;;17.55;8.05;;;;;;;;;;4831414;29;20120;-62
2022/05/03 21:00:22;;;;;;;16.35;8.35;;;;;;;;;;4831108;29;20101;-61
2022/05/03 21:02:48;;;;;;;17.33;8.98;;;;;;;;;;4833363;29;20038;-64
2022/05/03 21:05:14;;;;;;;15.82;7.90;;;;;;;;;;4832057;29;20037;-62
2022/05/03 21:07:41;;;;;;;18.23;8.40;;;;;;;;;;4834385;29;20415;-61
2022/05/03 21:10:07;;;;;;;19.05;8.63;;;;;;;;;;4831050;29;20039;-65
2022/05/03 21:12:34;;;;;;;24.65;8.80;;;;;;;;;;4831725;29;20482;-67
2022/05/03 21:15:02;;;;;;;18.77;8.60;;;;;;;;;;4829935;29;20118;-61
2022/05/03 21:17:28;;;;;;;20.63;8.90;;;;;;;;;;4831390;29;20026;-62
2022/05/03 21:19:54;;;;;;;22.38;8.80;;;;;;;;;;4829811;29;20049;-61
2022/05/03 21:22:21;;;;;;;32.95;13.52;;;;;;;;;;4833473;29;20030;-62
2022/05/03 21:24:47;;;;;;;25.30;13.38;;;;;;;;;;4824648;29;20034;-64
2022/05/03 21:27:13;;;;;;;20.65;11.90;;;;;;;;;;4836349;29;20489;-66
2022/05/03 21:29:40;;;;;;;13.73;8.88;;;;;;;;;;4829007;29;20112;-62
2022/05/03 21:32:07;;;;;;;15.18;7.55;;;;;;;;;;4812734;29;20398;-65
2022/05/03 21:34:33;;;;;;;15.80;8.23;;;;;;;;;;4835148;29;20037;-63
2022/05/03 21:36:59;;;;;;;11.90;6.75;;;;;;;;;;4824541;29;20038;-62
2022/05/03 21:39:25;;;;;;;9.70;6.40;;;;;;;;;;4834682;29;20026;-65
2022/05/03 21:41:51;;;;;;;13.05;6.88;;;;;;;;;;4830273;29;20053;-61
2022/05/03 21:44:18;;;;;;;12.10;7.05;;;;;;;;;;4827757;29;20022;-62
2022/05/03 21:46:45;;;;;;;11.10;6.53;;;;;;;;;;4834262;29;20030;-61
2022/05/03 21:49:11;;;;;;;13.00;6.88;;;;;;;;;;4824836;29;20049;-62
2022/05/03 21:51:37;;;;;;;16.23;7.30;;;;;;;;;;4839881;29;20036;-63
2022/05/03 21:54:03;;;;;;;13.63;6.88;;;;;;;;;;4829862;29;20034;-62
2022/05/03 21:56:29;;;;;;;14.73;7.35;;;;;;;;;;4834512;29;20073;-63
2022/05/03 21:58:55;;;;;;;9.35;6.07;;;;;;;;;;4825265;29;20440;-67